WEATHER DATA

TODAY
Time Temp. Dewp. Hum. Bar. 1h Prec. 24h Prec.
00:04 6.7 -1.3 56 1028.5 0.0000 0.0000
00:14 6.6 -1.4 56 1028.4 0.0000 0.0000
00:24 6.4 -1.3 57 1028.3 0.0000 0.0000
00:34 6.3 -1.2 58 1028.4 0.0000 0.0000
00:44 6.1 -1.2 59 1028.5 0.0000 0.0000
00:54 5.9 -1.3 59 1028.7 0.0000 0.0000
01:04 5.7 -1.3 60 1028.6 0.0000 0.0000
01:15 5.7 -1.3 60 1028.7 0.0000 0.0000
01:24 5.6 -1.2 61 1028.7 0.0000 0.0000
01:34 5.5 -1.2 61 1028.8 0.0000 0.0000
01:45 5.5 -1.2 61 1028.8 0.0000 0.0000
01:55 5.4 -1.1 62 1028.9 0.0000 0.0000
02:05 5.3 -1.2 62 1028.8 0.0000 0.0000
02:15 5.3 -1.2 62 1028.8 0.0000 0.0000
02:25 5.3 -1.2 62 1028.9 0.0000 0.0000
02:35 5.2 -1.3 62 1028.8 0.0000 0.0000
02:45 5.2 -1.1 63 1028.8 0.0000 0.0000
02:55 5 -1.3 63 1028.8 0.0000 0.0000
03:05 4.9 -1.2 64 1028.8 0.0000 0.0000
03:15 4.7 -1.2 65 1028.7 0.0000 0.0000
03:25 4.4 -1.4 65 1028.8 0.0000 0.0000
03:36 4.2 -1.4 66 1028.7 0.0000 0.0000
03:45 4 -1.4 67 1028.7 0.0000 0.0000
03:55 3.9 -1.3 68 1028.7 0.0000 0.0000
04:06 3.9 -1.5 67 1028.8 0.0000 0.0000
04:16 3.7 -1.5 68 1028.8 0.0000 0.0000
04:26 3.5 -1.6 68 1028.8 0.0000 0.0000
04:36 3.4 -1.5 69 1028.7 0.0000 0.0000
04:46 3.2 -1.7 69 1028.7 0.0000 0.0000
05:00 2.9 -1.6 71 1028.8 0.0000 0.0000
05:10 2.9 -1.6 71 1028.6 0.0000 0.0000
05:20 2.7 -1.6 72 1028.6 0.0000 0.0000
05:30 2.6 -1.7 72 1028.8 0.0000 0.0000
05:40 2.6 -1.7 72 1028.6 0.0000 0.0000
05:51 2.5 -1.6 73 1028.7 0.0000 0.0000
06:00 2.5 -1.6 73 1028.6 0.0000 0.0000
06:10 2.6 -1.5 73 1028.7 0.0000 0.0000
06:21 2.6 -1.5 73 1028.7 0.0000 0.0000
06:31 2.5 -1.6 73 1028.8 0.0000 0.0000
06:40 2.5 -1.6 73 1028.8 0.0000 0.0000
06:50 2.7 -1.3 74 1028.7 0.0000 0.0000
07:01 3 -1.4 72 1028.9 0.0000 0.0000
07:11 3 -1.4 72 1028.8 0.0000 0.0000
07:21 3 -1.4 72 1029 0.0000 0.0000
07:31 3 -1.4 72 1029 0.0000 0.0000
07:41 3.1 -1.3 72 1029.1 0.0000 0.0000
07:51 3.3 -1.1 72 1029 0.0000 0.0000
08:01 3.6 -0.9 72 1029.1 0.0000 0.0000
08:11 3.8 -0.7 72 1029.2 0.0000 0.0000
08:21 4 -0.7 71 1029.2 0.0000 0.0000
08:31 4.2 -0.5 71 1029.2 0.0000 0.0000
08:42 4.5 -0.4 70 1029.2 0.0000 0.0000
08:52 4.8 -0.2 70 1029.2 0.0000 0.0000
09:01 5 -0.2 69 1029.1 0.0000 0.0000
09:11 5.2 0 69 1029 0.0000 0.0000
09:22 5.5 0.1 68 1029 0.0000 0.0000
09:32 5.9 0 66 1028.8 0.0000 0.0000
09:41 6.2 0.5 67 1029 0.0000 0.0000
09:52 6.5 0.4 65 1028.8 0.0000 0.0000
10:02 6.8 0.7 65 1028.9 0.0000 0.0000
10:12 7.1 0.8 64 1029 0.0000 0.0000
10:32 7.8 1 62 1028.7 0.0000 0.0000
10:42 8.2 1.4 62 1028.8 0.0000 0.0000
10:52 8.4 1.3 61 1028.7 0.0000 0.0000
11:15 9.5 1.2 56 1028.6 0.0000 0.0000
11:25 9.9 0.5 52 1028.7 0.0000 0.0000
11:35 10.3 0.1 49 1028.6 0.0000 0.0000
11:46 10.6 0.6 50 1028.5 0.0000 0.0000
11:55 10.9 -0.5 45 1028.3 0.0000 0.0000
12:05 11.2 -0.2 45 1028.3 0.0000 0.0000
12:15 11.6 -0.2 44 1028.2 0.0000 0.0000
12:26 12 0.1 44 1028.2 0.0000 0.0000
12:35 12.2 0.3 44 1028.2 0.0000 0.0000
12:45 12.4 0.5 44 1028.1 0.0000 0.0000
12:56 12.7 0.1 42 1028.1 0.0000 0.0000
13:06 12.9 0.3 42 1027.9 0.0000 0.0000
13:16 13.2 0.2 41 1027.9 0.0000 0.0000
13:26 13.3 0 40 1027.9 0.0000 0.0000
13:36 13.6 0.6 41 1027.8 0.0000 0.0000
13:46 14 1.6 43 1027.7 0.0000 0.0000
13:56 14.6 1.2 40 1027.6 0.0000 0.0000
14:07 14.7 1.3 40 1027.6 0.0000 0.0000
14:16 15.1 2 41 1027.7 0.0000 0.0000
14:26 14.8 1.3 40 1027.6 0.0000 0.0000
14:36 14.8 1 39 1027.5 0.0000 0.0000

DAY STATISTIC

2021-04-13
TEMPERATURE
AVERAGE
6.6
HIGH
15.1
14:16
LOW
2.5
05:51
PRESSURE
AVERAGE
1028.6
HIGH
1029.2
08:11
LOW
1027.5
14:36
DEWPOINT
AVERAGE
-0.6
HIGH
2.0
14:16
LOW
-1.7
04:46
HUMIDITY
AVERAGE
61
HIGH
74
06:50
LOW
39
14:36
PRECIPITATION
RAIN HOUR
0.0
RAIN DAY
0.0
TEMPERATURE (°C)
LOW
2.5
HIGH
15.1
AVERAGE
6.6
PRESSURE (hpa)
LOW
1027.5
HIGH
1029.2
AVERAGE
1028.6
DEVICE